createdAt,value
2022-12-10T00:02:02.508Z,96970.38
2022-12-10T00:05:12.670Z,96973.47
2022-12-10T00:08:18.446Z,96972.66
2022-12-10T00:11:27.394Z,96972.34
2022-12-10T00:14:32.923Z,96973.28
2022-12-10T00:17:39.212Z,96977.53
2022-12-10T00:20:47.416Z,96973.28
2022-12-10T00:23:54.487Z,96970.38
2022-12-10T00:27:00.080Z,96971.03
2022-12-10T00:30:07.906Z,96971.34
2022-12-10T00:33:13.858Z,96971.50
2022-12-10T00:36:27.319Z,96961.13
2022-12-10T00:39:33.095Z,96967.13
2022-12-10T00:42:39.452Z,96974.47
2022-12-10T00:45:45.280Z,96971.34
2022-12-10T00:48:52.534Z,96974.75
2022-12-10T00:52:01.423Z,96968.59
2022-12-10T00:55:11.497Z,96975.38
2022-12-10T00:58:17.044Z,96976.53
2022-12-10T01:01:27.263Z,96981.56
2022-12-10T01:04:34.365Z,96975.72
2022-12-10T01:07:43.629Z,96981.91
2022-12-10T01:10:57.120Z,96987.94
2022-12-10T01:14:04.823Z,96991.63
2022-12-10T01:17:10.446Z,96983.69
2022-12-10T01:20:17.623Z,96988.25
2022-12-10T01:23:25.751Z,96979.81
2022-12-10T01:26:36.443Z,96983.53
2022-12-10T01:29:42.206Z,96999.59
2022-12-10T01:32:48.546Z,96998.78
2022-12-10T01:35:54.081Z,97004.78
2022-12-10T01:39:04.933Z,97016.31
2022-12-10T01:42:15.629Z,97020.72
2022-12-10T01:45:22.736Z,97010.13
2022-12-10T01:48:28.253Z,97001.88
2022-12-10T01:51:40.340Z,97002.69
2022-12-10T01:54:50.847Z,97001.22
2022-12-10T01:57:57.199Z,97011.47
2022-12-10T02:01:13.370Z,97002.69
2022-12-10T02:04:36.123Z,97008.56
2022-12-10T02:07:59.917Z,97009.19
2022-12-10T02:11:21.324Z,97002.72
2022-12-10T02:14:42.818Z,97016.66
2022-12-10T02:17:58.098Z,97017.78
2022-12-10T02:21:13.962Z,97028.66
2022-12-10T02:24:30.258Z,97030.91
2022-12-10T02:27:56.300Z,97049.91
2022-12-10T02:31:09.851Z,97041.91
2022-12-10T02:34:23.016Z,97039.47
2022-12-10T02:37:35.964Z,97046.94
2022-12-10T02:40:52.819Z,97032.16
2022-12-10T02:44:05.931Z,97032.03
2022-12-10T02:47:16.721Z,97013.03
2022-12-10T02:50:26.750Z,97020.22
2022-12-10T02:53:33.566Z,97017.31
2022-12-10T02:56:48.963Z,97016.47
2022-12-10T03:00:17.555Z,97016.97
2022-12-10T03:03:48.911Z,97026.41
2022-12-10T03:07:02.084Z,97024.28
2022-12-10T03:10:18.395Z,97035.50
2022-12-10T03:13:33.567Z,97035.44
2022-12-10T03:16:46.230Z,97039.00
2022-12-10T03:19:57.774Z,97050.69
2022-12-10T03:23:06.363Z,97052.44
2022-12-10T03:26:14.563Z,97063.81
2022-12-10T03:29:30.191Z,97051.34
2022-12-10T03:32:37.606Z,97048.56
2022-12-10T03:35:46.209Z,97043.06
2022-12-10T03:38:53.680Z,97047.50
2022-12-10T03:41:59.265Z,97052.84
2022-12-10T03:45:05.582Z,97062.28
2022-12-10T03:48:11.481Z,97069.53
2022-12-10T03:51:20.512Z,97073.72
2022-12-10T03:54:26.354Z,97067.88
2022-12-10T03:57:32.642Z,97076.00
2022-12-10T04:00:38.540Z,97064.75
2022-12-10T04:03:47.310Z,97068.16
2022-12-10T04:06:55.459Z,97079.34
2022-12-10T04:10:01.772Z,97084.88
2022-12-10T04:13:20.224Z,97078.91
2022-12-10T04:16:31.451Z,97076.19
2022-12-10T04:19:37.225Z,97084.13
2022-12-10T04:22:58.699Z,97087.56
2022-12-10T04:26:17.743Z,97090.31
2022-12-10T04:29:24.150Z,97105.56
2022-12-10T04:32:33.790Z,97117.75
2022-12-10T04:35:40.111Z,97116.28
2022-12-10T04:38:48.458Z,97127.28
2022-12-10T04:41:55.034Z,97065.03
2022-12-10T04:45:00.881Z,97113.34
2022-12-10T04:48:07.865Z,97125.50
2022-12-10T04:51:14.030Z,97119.50
2022-12-10T04:54:24.016Z,97125.31
2022-12-10T04:57:29.397Z,97129.00
2022-12-10T05:00:35.746Z,97134.19
2022-12-10T05:03:41.581Z,97143.50
2022-12-10T05:06:49.024Z,97142.53
2022-12-10T05:09:59.469Z,97144.00
2022-12-10T05:13:05.714Z,97149.00
2022-12-10T05:16:15.894Z,97154.69
2022-12-10T05:19:24.576Z,97149.81
2022-12-10T05:22:51.561Z,97150.94
2022-12-10T05:26:07.566Z,97153.91
2022-12-10T05:29:14.213Z,97143.56
2022-12-10T05:32:20.520Z,97136.44
2022-12-10T05:35:26.184Z,97138.38
2022-12-10T05:38:35.954Z,97132.22
2022-12-10T05:41:45.173Z,97131.41
2022-12-10T05:44:51.894Z,97129.47
2022-12-10T05:47:57.462Z,97133.88
2022-12-10T05:51:08.614Z,97120.06
2022-12-10T05:54:14.310Z,97129.66
2022-12-10T05:57:23.156Z,97108.19
2022-12-10T06:00:28.920Z,97116.47
2022-12-10T06:03:35.276Z,97105.75
2022-12-10T06:06:45.203Z,97101.88
2022-12-10T06:09:51.653Z,97113.25
2022-12-10T06:12:59.852Z,97102.41
2022-12-10T06:16:10.368Z,97123.66
2022-12-10T06:19:15.921Z,97129.03
2022-12-10T06:22:22.179Z,97138.78
2022-12-10T06:25:28.164Z,97142.34
2022-12-10T06:28:37.167Z,97160.00
2022-12-10T06:31:42.800Z,97163.75
2022-12-10T06:34:49.236Z,97188.09
2022-12-10T06:37:55.406Z,97185.59
2022-12-10T06:41:02.032Z,97197.94
2022-12-10T06:44:11.683Z,97201.38
2022-12-10T06:47:18.402Z,97210.19
2022-12-10T06:50:24.000Z,97208.25
2022-12-10T06:53:30.310Z,97208.41
2022-12-10T06:56:35.914Z,97210.13
2022-12-10T06:59:44.818Z,97231.75
2022-12-10T07:02:50.968Z,97232.69
2022-12-10T07:06:00.936Z,97199.53
2022-12-10T07:09:06.549Z,97206.03
2022-12-10T07:12:13.175Z,97210.28
2022-12-10T07:15:21.690Z,97201.03
2022-12-10T07:18:28.502Z,97209.03
2022-12-10T07:21:37.440Z,97205.44
2022-12-10T07:24:44.207Z,97218.16
2022-12-10T07:27:50.463Z,97221.41
2022-12-10T07:31:08.726Z,97221.28
2022-12-10T07:34:15.937Z,97231.19
2022-12-10T07:37:22.360Z,97239.16
2022-12-10T07:40:27.966Z,97240.91
2022-12-10T07:43:38.338Z,97238.78
2022-12-10T07:46:46.494Z,97238.13
2022-12-10T07:49:53.026Z,97227.56
2022-12-10T07:52:58.523Z,97238.44
2022-12-10T07:56:05.566Z,97243.75
2022-12-10T07:59:11.502Z,97242.75
2022-12-10T08:02:20.776Z,97241.06
2022-12-10T08:05:26.540Z,97236.53
2022-12-10T08:08:32.920Z,97221.03
2022-12-10T08:11:38.378Z,97219.47
2022-12-10T08:14:44.594Z,97211.50
2022-12-10T08:17:52.757Z,97229.84
2022-12-10T08:20:59.061Z,97225.28
2022-12-10T08:24:05.445Z,97222.84
2022-12-10T08:27:12.193Z,97221.38
2022-12-10T08:30:18.016Z,97223.66
2022-12-10T08:33:26.905Z,97225.28
2022-12-10T08:36:32.778Z,97216.38
2022-12-10T08:39:39.138Z,97222.38
2022-12-10T08:42:44.786Z,97227.25
2022-12-10T08:45:51.122Z,97235.56
2022-12-10T08:48:59.532Z,97225.81
2022-12-10T08:52:06.483Z,97244.69
2022-12-10T08:55:12.677Z,97250.59
2022-12-10T08:58:18.962Z,97241.38
2022-12-10T09:01:24.578Z,97247.25
2022-12-10T09:04:33.521Z,97248.88
2022-12-10T09:07:39.079Z,97239.47
2022-12-10T09:10:45.862Z,97225.81
2022-12-10T09:13:51.484Z,97221.75
2022-12-10T09:16:57.894Z,97225.31
2022-12-10T09:20:06.968Z,97217.19
2022-12-10T09:23:13.695Z,97215.38
2022-12-10T09:26:20.509Z,97225.94
2022-12-10T09:29:26.894Z,97231.13
2022-12-10T09:32:32.560Z,97217.13
2022-12-10T09:35:45.284Z,97212.72
2022-12-10T09:38:55.019Z,97216.63
2022-12-10T09:42:29.729Z,97207.81
2022-12-10T09:45:58.774Z,97212.53
2022-12-10T09:49:21.586Z,97200.19
2022-12-10T09:52:45.358Z,97200.84
2022-12-10T09:55:54.105Z,97209.78
2022-12-10T09:59:03.344Z,97207.97
2022-12-10T10:02:28.721Z,97200.19
2022-12-10T10:05:39.632Z,97210.75
2022-12-10T10:08:54.435Z,97204.41
2022-12-10T10:12:05.859Z,97214.97
2022-12-10T10:15:22.316Z,97219.34
2022-12-10T10:18:40.655Z,97223.25
2022-12-10T10:21:50.548Z,97213.16
2022-12-10T10:24:58.852Z,97222.38
2022-12-10T10:28:05.748Z,97221.75
2022-12-10T10:31:24.020Z,97216.03
2022-12-10T10:34:30.657Z,97221.53
2022-12-10T10:37:47.678Z,97224.47
2022-12-10T10:41:01.419Z,97230.91
2022-12-10T10:44:07.183Z,97222.16
2022-12-10T10:47:34.682Z,97212.81
2022-12-10T10:50:44.751Z,97205.88
2022-12-10T10:53:56.053Z,97204.25
2022-12-10T10:57:09.954Z,97195.94
2022-12-10T11:00:27.963Z,97184.91
2022-12-10T11:03:38.945Z,97203.09
2022-12-10T11:06:47.924Z,97209.41
2022-12-10T11:09:56.156Z,97216.38
2022-12-10T11:13:11.295Z,97215.84
2022-12-10T11:16:24.473Z,97206.31
2022-12-10T11:19:30.828Z,97204.34
2022-12-10T11:22:38.560Z,97209.06
2022-12-10T11:26:01.769Z,97204.56
2022-12-10T11:29:30.098Z,97203.78
2022-12-10T11:33:16.877Z,97200.66
2022-12-10T11:36:39.787Z,97206.97
2022-12-10T11:40:16.974Z,97215.88
2022-12-10T11:43:57.928Z,97216.25
2022-12-10T11:47:33.047Z,97204.53
2022-12-10T11:50:51.311Z,97199.81
2022-12-10T11:54:30.154Z,97206.31
2022-12-10T11:57:52.428Z,97195.88
2022-12-10T12:01:16.384Z,97204.50
2022-12-10T12:04:50.240Z,97193.34
2022-12-10T12:08:12.275Z,97200.00
2022-12-10T12:11:41.143Z,97202.44
2022-12-10T12:15:01.164Z,97203.88
2022-12-10T12:18:23.553Z,97202.41
2022-12-10T12:21:33.809Z,97202.72
2022-12-10T12:24:47.740Z,97193.94
2022-12-10T12:28:04.116Z,97205.00
2022-12-10T12:31:20.280Z,97196.84
2022-12-10T12:34:43.311Z,97204.16
2022-12-10T12:38:01.569Z,97200.63
2022-12-10T12:41:20.206Z,97196.56
2022-12-10T12:44:37.600Z,97187.50
2022-12-10T12:47:59.652Z,97196.47
2022-12-10T12:51:17.848Z,97187.69
2022-12-10T12:54:27.044Z,97197.47
2022-12-10T12:57:47.616Z,97197.94
2022-12-10T13:01:05.002Z,97199.72
2022-12-10T13:04:13.738Z,97203.41
2022-12-10T13:07:39.361Z,97196.25
2022-12-10T13:10:56.904Z,97193.34
2022-12-10T13:14:31.815Z,97197.41
2022-12-10T13:17:39.969Z,97200.00
2022-12-10T13:20:54.477Z,97207.13
2022-12-10T13:24:14.497Z,97221.31
2022-12-10T13:27:35.368Z,97216.09
2022-12-10T13:30:41.008Z,97213.94
2022-12-10T13:34:09.193Z,97215.38
2022-12-10T13:37:33.536Z,97217.44
2022-12-10T13:40:58.828Z,97229.78
2022-12-10T13:44:38.564Z,97219.53
2022-12-10T13:47:55.154Z,97232.56
2022-12-10T13:51:26.563Z,97232.84
2022-12-10T13:55:20.897Z,97240.38
2022-12-10T13:58:52.698Z,97242.34
2022-12-10T14:02:33.140Z,97245.00
2022-12-10T14:06:10.891Z,97255.72
2022-12-10T14:09:27.189Z,97238.13
2022-12-10T14:12:39.579Z,97248.34
2022-12-10T14:15:57.344Z,97237.78
2022-12-10T14:19:12.345Z,97248.97
2022-12-10T14:22:32.784Z,97243.28
2022-12-10T14:25:47.427Z,97242.28
2022-12-10T14:29:00.612Z,97244.22
2022-12-10T14:32:07.213Z,97243.84
2022-12-10T14:35:25.713Z,97241.25
2022-12-10T14:38:37.304Z,97242.09
2022-12-10T14:41:46.237Z,97246.50
2022-12-10T14:45:02.496Z,97266.69
2022-12-10T14:48:10.195Z,97261.53
2022-12-10T14:51:23.476Z,97265.78
2022-12-10T14:54:33.839Z,97254.72
2022-12-10T14:57:46.971Z,97266.75
2022-12-10T15:00:53.601Z,97258.44
2022-12-10T15:04:05.344Z,97259.41
2022-12-10T15:07:22.674Z,97258.41
2022-12-10T15:10:36.519Z,97260.16
2022-12-10T15:13:50.210Z,97255.13
2022-12-10T15:17:02.673Z,97254.75
2022-12-10T15:20:28.839Z,97243.66
2022-12-10T15:23:41.758Z,97248.94
2022-12-10T15:26:52.569Z,97258.72
2022-12-10T15:29:58.141Z,97255.47
2022-12-10T15:33:05.008Z,97257.44
2022-12-10T15:36:30.397Z,97253.34
2022-12-10T15:39:49.797Z,97245.25
2022-12-10T15:43:15.642Z,97244.91
2022-12-10T15:46:22.684Z,97250.88
2022-12-10T15:49:28.588Z,97248.91
2022-12-10T15:52:36.737Z,97253.63
2022-12-10T15:55:45.100Z,97243.13
2022-12-10T15:58:51.856Z,97251.03
2022-12-10T16:01:58.123Z,97253.91
2022-12-10T16:05:04.820Z,97248.34
2022-12-10T16:08:19.748Z,97241.19
2022-12-10T16:11:29.885Z,97251.41
2022-12-10T16:14:36.666Z,97248.00
2022-12-10T16:17:42.998Z,97252.56
2022-12-10T16:20:49.208Z,97253.88
2022-12-10T16:23:55.748Z,97246.09
2022-12-10T16:27:03.915Z,97251.41
2022-12-10T16:30:20.605Z,97249.44
2022-12-10T16:33:29.736Z,97254.00
2022-12-10T16:36:37.359Z,97228.72
2022-12-10T16:39:46.958Z,97238.66
2022-12-10T16:43:00.426Z,97238.81
2022-12-10T16:46:08.298Z,97239.13
2022-12-10T16:49:14.871Z,97242.00
2022-12-10T16:52:23.050Z,97233.34
2022-12-10T16:55:30.351Z,97240.63
2022-12-10T16:58:38.631Z,97230.41
2022-12-10T17:01:44.977Z,97224.06
2022-12-10T17:04:51.495Z,97231.06
2022-12-10T17:07:58.152Z,97227.81
2022-12-10T17:11:16.269Z,97237.38
2022-12-10T17:14:32.212Z,97238.88
2022-12-10T17:17:37.831Z,97255.09
2022-12-10T17:20:44.464Z,97245.53
2022-12-10T17:23:50.026Z,97255.91
2022-12-10T17:27:02.473Z,97260.44
2022-12-10T17:30:17.991Z,97263.50
2022-12-10T17:33:26.936Z,97252.00
2022-12-10T17:36:32.573Z,97262.00
2022-12-10T17:39:38.914Z,97254.88
2022-12-10T17:42:44.597Z,97253.91
2022-12-10T17:45:53.819Z,97249.06
2022-12-10T17:49:05.071Z,97257.97
2022-12-10T17:52:13.823Z,97250.53
2022-12-10T17:55:20.141Z,97250.00
2022-12-10T17:58:26.905Z,97251.63
2022-12-10T18:01:35.316Z,97241.56
2022-12-10T18:04:42.639Z,97238.97
2022-12-10T18:07:48.389Z,97230.03
2022-12-10T18:10:58.154Z,97234.25
2022-12-10T18:14:04.319Z,97238.59
2022-12-10T18:17:18.685Z,97231.50
2022-12-10T18:20:29.339Z,97239.00
2022-12-10T18:23:38.659Z,97245.00
2022-12-10T18:26:47.531Z,97241.91
2022-12-10T18:29:54.168Z,97246.69
2022-12-10T18:33:02.687Z,97231.31
2022-12-10T18:36:10.064Z,97237.31
2022-12-10T18:39:22.949Z,97235.66
2022-12-10T18:42:29.524Z,97241.22
2022-12-10T18:45:35.072Z,97238.81
2022-12-10T18:48:44.257Z,97239.63
2022-12-10T18:51:50.329Z,97224.66
2022-12-10T18:54:57.059Z,97244.88
2022-12-10T18:58:06.919Z,97227.78
2022-12-10T19:01:17.989Z,97231.88
2022-12-10T19:04:26.251Z,97228.44
2022-12-10T19:07:32.770Z,97232.97
2022-12-10T19:10:38.585Z,97226.44
2022-12-10T19:13:45.328Z,97219.25
2022-12-10T19:16:51.134Z,97232.34
2022-12-10T19:20:02.107Z,97231.41
2022-12-10T19:23:07.879Z,97226.03
2022-12-10T19:26:33.211Z,97224.25
2022-12-10T19:29:41.640Z,97229.91
2022-12-10T19:32:50.629Z,97229.19
2022-12-10T19:35:58.988Z,97230.38
2022-12-10T19:39:05.749Z,97233.78
2022-12-10T19:42:11.624Z,97247.97
2022-12-10T19:45:19.693Z,97248.25
2022-12-10T19:48:28.064Z,97237.41
2022-12-10T19:51:39.434Z,97243.59
2022-12-10T19:54:48.846Z,97234.69
2022-12-10T19:57:55.715Z,97238.31
2022-12-10T20:01:05.371Z,97233.56
2022-12-10T20:04:12.434Z,97229.28
2022-12-10T20:07:20.776Z,97218.97
2022-12-10T20:10:31.868Z,97216.38
2022-12-10T20:13:39.375Z,97222.50
2022-12-10T20:16:46.854Z,97219.09
2022-12-10T20:19:52.474Z,97211.63
2022-12-10T20:23:03.086Z,97218.75
2022-12-10T20:26:21.667Z,97213.66
2022-12-10T20:29:30.042Z,97213.09
2022-12-10T20:32:35.765Z,97207.25
2022-12-10T20:35:42.807Z,97205.72
2022-12-10T20:38:52.009Z,97217.41
2022-12-10T20:42:00.601Z,97211.31
2022-12-10T20:45:06.555Z,97191.47
2022-12-10T20:48:15.117Z,97203.19
2022-12-10T20:51:21.539Z,97197.72
2022-12-10T20:54:30.753Z,97191.53
2022-12-10T20:57:36.318Z,97186.53
2022-12-10T21:00:44.750Z,97181.34
2022-12-10T21:03:51.262Z,97180.22
2022-12-10T21:06:57.906Z,97177.84
2022-12-10T21:10:30.241Z,97178.59
2022-12-10T21:13:36.822Z,97184.41
2022-12-10T21:16:43.038Z,97188.09
2022-12-10T21:19:49.361Z,97190.25
2022-12-10T21:22:55.657Z,97181.97
2022-12-10T21:26:04.903Z,97180.69
2022-12-10T21:29:10.729Z,97178.13
2022-12-10T21:32:17.409Z,97184.78
2022-12-10T21:35:23.435Z,97187.34
2022-12-10T21:38:30.733Z,97195.75
2022-12-10T21:41:51.610Z,97190.84
2022-12-10T21:44:58.065Z,97190.50
2022-12-10T21:48:04.911Z,97189.72
2022-12-10T21:51:12.752Z,97188.94
2022-12-10T21:54:20.057Z,97175.03
2022-12-10T21:57:29.477Z,97175.50
2022-12-10T22:00:36.428Z,97173.38
2022-12-10T22:03:43.943Z,97175.09
2022-12-10T22:06:49.565Z,97167.91
2022-12-10T22:09:56.005Z,97184.00
2022-12-10T22:13:04.252Z,97181.13
2022-12-10T22:16:11.489Z,97172.50
2022-12-10T22:19:17.132Z,97170.06
2022-12-10T22:22:23.881Z,97187.06
2022-12-10T22:25:29.707Z,97176.81
2022-12-10T22:28:38.874Z,97169.84
2022-12-10T22:31:44.445Z,97176.22
2022-12-10T22:34:51.043Z,97173.63
2022-12-10T22:37:56.825Z,97169.66
2022-12-10T22:41:12.171Z,97169.66
2022-12-10T22:44:20.735Z,97178.38
2022-12-10T22:47:29.516Z,97170.94
2022-12-10T22:50:35.043Z,97172.72
2022-12-10T22:53:41.309Z,97170.47
2022-12-10T22:56:48.760Z,97180.19
2022-12-10T22:59:57.929Z,97172.19
2022-12-10T23:03:07.447Z,97175.75
2022-12-10T23:06:15.434Z,97170.75
2022-12-10T23:09:20.913Z,97159.22
2022-12-10T23:12:39.686Z,97161.03
2022-12-10T23:15:47.838Z,97155.16
2022-12-10T23:18:54.132Z,97153.84
2022-12-10T23:22:00.571Z,97155.13
2022-12-10T23:25:07.852Z,97146.50
2022-12-10T23:28:14.327Z,97141.13
2022-12-10T23:31:24.169Z,97143.25
2022-12-10T23:34:29.731Z,97130.69
2022-12-10T23:37:37.271Z,97131.88
2022-12-10T23:40:44.352Z,97130.09
2022-12-10T23:43:57.016Z,97123.63
2022-12-10T23:47:05.942Z,97119.25
2022-12-10T23:50:13.973Z,97126.25
2022-12-10T23:53:19.606Z,97126.72
2022-12-10T23:56:25.952Z,97133.56
2022-12-10T23:59:31.543Z,97133.31
